Time;durP1;ratioP1;P1;durP2;ratioP2;P2;SDS_P1;SDS_P2;PMS_P1;PMS_P2;Temp;Humidity;BMP_temperature;BMP_pressure;BME280_temperature;BME280_humidity;BME280_pressure;Samples;Min_cycle;Max_cycle;Signal;HPM_P1;HPM_P2
2022/12/13 00:00:36;;;;;;;66.20;38.35;;;0.30;2201.60;;;;;;4970845;28;20030;-57
2022/12/13 00:03:02;;;;;;;78.18;43.42;;;0.30;2201.60;;;;;;4971105;28;20027;-56
2022/12/13 00:05:28;;;;;;;103.45;54.22;;;0.40;2201.60;;;;;;4971018;28;20140;-64
2022/12/13 00:07:54;;;;;;;85.75;50.20;;;0.40;2201.60;;;;;;4973363;28;20034;-64
2022/12/13 00:10:19;;;;;;;186.88;91.25;;;0.40;2201.60;;;;;;4980490;28;20030;-56
2022/12/13 00:12:45;;;;;;;133.48;74.25;;;0.40;2201.60;;;;;;4979134;28;20090;-57
2022/12/13 00:15:11;;;;;;;377.23;174.85;;;0.40;2201.60;;;;;;4979093;28;20506;-62
2022/12/13 00:17:36;;;;;;;143.65;77.97;;;0.40;2201.60;;;;;;4980229;28;20038;-63
2022/12/13 00:20:03;;;;;;;93.63;49.97;;;0.40;2201.60;;;;;;4978843;28;20098;-61
2022/12/13 00:22:29;;;;;;;81.05;44.38;;;0.40;2201.60;;;;;;4979297;28;20018;-66
2022/12/13 00:24:55;;;;;;;73.50;37.88;;;0.30;2201.60;;;;;;4980691;28;20035;-55
2022/12/13 00:27:21;;;;;;;89.22;41.80;;;0.30;2201.60;;;;;;4976093;28;20150;-55
2022/12/13 00:29:47;;;;;;;59.42;32.03;;;0.30;2201.60;;;;;;4979108;28;20038;-57
2022/12/13 00:32:13;;;;;;;55.75;31.42;;;0.40;2201.60;;;;;;4980108;28;20038;-55
2022/12/13 00:34:39;;;;;;;50.08;28.77;;;0.10;2201.60;;;;;;4978099;28;20027;-57
2022/12/13 00:37:04;;;;;;;45.67;28.83;;;0.00;2201.60;;;;;;4979752;28;20034;-62
2022/12/13 00:39:30;;;;;;;43.17;25.83;;;12.90;2201.60;;;;;;4979442;28;20034;-63
2022/12/13 00:41:56;;;;;;;41.08;25.05;;;12.90;2201.60;;;;;;4978265;28;20485;-60
2022/12/13 00:44:22;;;;;;;41.95;24.42;;;13.10;2201.60;;;;;;4980194;28;20026;-55
2022/12/13 00:46:50;;;;;;;49.08;27.40;;;13.30;2201.60;;;;;;4978937;28;20046;-57
2022/12/13 00:49:16;;;;;;;55.03;30.70;;;13.60;2201.60;;;;;;4978146;28;20033;-58
2022/12/13 00:51:42;;;;;;;42.35;26.27;;;13.70;2201.60;;;;;;4979215;28;20031;-60
2022/12/13 00:54:09;;;;;;;47.70;27.58;;;13.60;2201.60;;;;;;4982805;28;20065;-55
2022/12/13 00:56:36;;;;;;;49.17;24.98;;;13.40;2201.60;;;;;;4983391;28;20493;-64
2022/12/13 00:59:03;;;;;;;76.68;36.00;;;13.40;2201.60;;;;;;4979178;28;20495;-56
2022/12/13 01:01:33;;;;;;;83.82;39.35;;;13.20;2201.60;;;;;;4982638;28;20369;-57
2022/12/13 01:04:01;;;;;;;40.65;22.25;;;13.20;2201.60;;;;;;4983346;28;20018;-56
2022/12/13 01:06:39;;;;;;;39.70;22.05;;;13.20;2201.60;;;;;;4982208;28;20078;-62
2022/12/13 01:09:08;;;;;;;35.30;20.20;;;13.10;2201.60;;;;;;4979600;28;20027;-55
2022/12/13 01:11:34;;;;;;;46.60;22.85;;;13.20;2201.60;;;;;;4981765;28;20053;-55
2022/12/13 01:14:00;;;;;;;49.13;28.80;;;13.10;2201.60;;;;;;4983144;28;20014;-56
2022/12/13 01:16:26;;;;;;;99.05;52.45;;;13.20;2201.60;;;;;;4981800;28;20015;-57
2022/12/13 01:18:51;;;;;;;140.75;77.70;;;13.20;2201.60;;;;;;4982213;28;20414;-55
2022/12/13 01:21:19;;;;;;;88.00;48.67;;;13.20;2201.60;;;;;;4983252;28;21313;-56
2022/12/13 01:23:45;;;;;;;76.15;38.95;;;13.20;2201.60;;;;;;4979411;28;20023;-56
2022/12/13 01:26:16;;;;;;;48.92;26.77;;;13.10;2201.60;;;;;;4982113;28;20096;-61
2022/12/13 01:28:42;;;;;;;37.67;20.13;;;13.10;2201.60;;;;;;4983086;28;20033;-58
2022/12/13 01:31:13;;;;;;;36.28;21.52;;;13.10;2201.60;;;;;;4981186;28;20019;-56
2022/12/13 01:33:39;;;;;;;42.40;23.15;;;13.10;2201.60;;;;;;4981010;28;20058;-55
2022/12/13 01:36:09;;;;;;;43.97;22.83;;;13.20;2201.60;;;;;;4982853;28;20102;-55
2022/12/13 01:38:35;;;;;;;42.97;23.45;;;13.30;2201.60;;;;;;4982519;28;20502;-55
2022/12/13 01:41:01;;;;;;;46.13;24.70;;;13.40;2201.60;;;;;;4980874;28;20023;-56
2022/12/13 01:43:36;;;;;;;68.53;38.70;;;13.30;2201.60;;;;;;4982425;28;20023;-56
2022/12/13 01:46:03;;;;;;;46.22;26.30;;;13.40;2201.60;;;;;;4982758;28;20040;-56
2022/12/13 01:48:36;;;;;;;39.75;18.05;;;13.40;2201.60;;;;;;4981107;28;20023;-64
2022/12/13 01:51:04;;;;;;;25.77;15.32;;;13.40;2201.60;;;;;;4980657;28;20062;-56
2022/12/13 01:53:34;;;;;;;27.52;15.00;;;13.50;2201.60;;;;;;4981767;28;20042;-59
2022/12/13 01:56:08;;;;;;;29.40;15.57;;;13.50;2201.60;;;;;;4982414;28;20034;-56
2022/12/13 01:58:36;;;;;;;30.60;18.65;;;13.30;2201.60;;;;;;4981846;28;20037;-57
2022/12/13 02:01:03;;;;;;;27.05;16.08;;;13.30;2201.60;;;;;;4988949;28;20030;-56
2022/12/13 02:03:28;;;;;;;37.35;20.52;;;13.30;2201.60;;;;;;4992198;28;20037;-57
2022/12/13 02:06:18;;;;;;;35.45;20.38;;;13.40;2201.60;;;;;;4992588;28;20026;-61
2022/12/13 02:08:45;;;;;;;28.98;17.73;;;13.40;2201.60;;;;;;4992507;28;20532;-63
2022/12/13 02:11:13;;;;;;;28.00;16.77;;;13.40;2201.60;;;;;;4992344;28;20113;-56
2022/12/13 02:13:39;;;;;;;24.00;14.63;;;13.30;2201.60;;;;;;4992271;28;20034;-56
2022/12/13 02:16:21;;;;;;;24.55;14.15;;;13.30;2201.60;;;;;;4992504;28;20029;-56
2022/12/13 02:19:12;;;;;;;26.73;16.05;;;13.30;2201.60;;;;;;4991921;28;20097;-61
2022/12/13 02:22:09;;;;;;;26.05;15.43;;;13.30;2201.60;;;;;;4991924;28;20034;-56
2022/12/13 02:24:57;;;;;;;23.13;13.52;;;13.20;2201.60;;;;;;4992860;28;20350;-56
2022/12/13 02:27:34;;;;;;;23.70;14.77;;;13.20;2201.60;;;;;;4992299;28;20030;-63
2022/12/13 02:30:19;;;;;;;18.90;12.55;;;13.10;2201.60;;;;;;4992013;28;20054;-56
2022/12/13 02:33:03;;;;;;;19.17;11.27;;;13.10;2201.60;;;;;;4992094;28;20042;-56
2022/12/13 02:35:45;;;;;;;20.90;10.55;;;13.20;2201.60;;;;;;4991831;28;20022;-62
2022/12/13 02:38:28;;;;;;;20.20;10.50;;;13.00;2201.60;;;;;;4991587;28;20110;-56
2022/12/13 02:40:57;;;;;;;20.80;10.45;;;13.00;2201.60;;;;;;4992229;28;20026;-56
2022/12/13 02:43:24;;;;;;;17.17;9.70;;;13.00;2201.60;;;;;;4991945;28;20030;-62
2022/12/13 02:46:00;;;;;;;28.17;17.13;;;13.00;2201.60;;;;;;4991557;28;20034;-64
2022/12/13 02:48:33;;;;;;;46.85;22.35;;;13.10;2201.60;;;;;;4991840;28;20062;-63
2022/12/13 02:51:01;;;;;;;23.75;11.13;;;13.00;2201.60;;;;;;4991215;28;20030;-63
2022/12/13 02:53:27;;;;;;;29.25;13.80;;;13.00;2201.60;;;;;;4991513;28;20043;-56
2022/12/13 02:55:53;;;;;;;21.05;11.30;;;13.00;2201.60;;;;;;4991634;28;20101;-56
2022/12/13 02:58:23;;;;;;;17.95;9.25;;;13.00;2201.60;;;;;;4991523;28;20033;-56
2022/12/13 03:00:54;;;;;;;13.38;8.82;;;13.20;2201.60;;;;;;4991349;28;20057;-64
2022/12/13 03:03:29;;;;;;;16.13;8.70;;;13.20;2201.60;;;;;;4991195;28;20109;-63
2022/12/13 03:08:54;;;;;;;20.65;11.20;;;13.00;2201.60;;;;;;4991194;28;20072;-56
2022/12/13 03:11:22;;;;;;;27.70;14.55;;;13.00;2201.60;;;;;;4991172;28;20473;-57
2022/12/13 03:13:52;;;;;;;28.55;16.90;;;13.00;2201.60;;;;;;4990251;28;20049;-56
2022/12/13 03:16:32;;;;;;;23.60;12.40;;;12.90;2201.60;;;;;;4991075;28;20027;-64
2022/12/13 03:19:01;;;;;;;17.98;11.43;;;12.90;2201.60;;;;;;4991263;28;20077;-56
2022/12/13 03:21:27;;;;;;;18.38;11.35;;;0.00;2201.60;;;;;;4991393;28;20029;-57
2022/12/13 03:23:53;;;;;;;13.48;7.75;;;13.00;2201.60;;;;;;4991302;28;20034;-56
2022/12/13 03:26:25;;;;;;;15.15;8.88;;;13.00;2201.60;;;;;;4991191;28;20519;-63
2022/12/13 03:28:51;;;;;;;15.65;9.45;;;13.10;2201.60;;;;;;4990817;28;20033;-63
2022/12/13 03:31:18;;;;;;;23.67;14.00;;;13.10;2201.60;;;;;;4991028;28;20077;-56
2022/12/13 03:33:44;;;;;;;23.73;11.23;;;13.10;2201.60;;;;;;4991165;28;20030;-56
2022/12/13 03:36:11;;;;;;;19.40;11.32;;;13.30;2201.60;;;;;;4990883;28;20034;-56
2022/12/13 03:38:39;;;;;;;16.55;11.07;;;13.20;2201.60;;;;;;4990925;28;20038;-56
2022/12/13 03:41:09;;;;;;;20.00;11.88;;;13.00;2201.60;;;;;;4991188;28;20034;-56
2022/12/13 03:43:35;;;;;;;21.95;12.27;;;13.00;2201.60;;;;;;4990471;28;20022;-56
2022/12/13 03:46:01;;;;;;;15.85;10.07;;;12.90;2201.60;;;;;;4990770;28;20034;-56
2022/12/13 03:48:27;;;;;;;18.77;10.10;;;12.90;2201.60;;;;;;4990943;28;20026;-56
2022/12/13 03:50:53;;;;;;;20.02;10.18;;;12.90;2201.60;;;;;;4990766;28;20437;-56
2022/12/13 03:53:21;;;;;;;22.67;13.18;;;0.00;2201.60;;;;;;4990771;28;20034;-56
2022/12/13 03:55:46;;;;;;;15.35;9.50;;;0.00;2201.60;;;;;;4990453;28;20037;-56
2022/12/13 03:58:12;;;;;;;14.85;9.48;;;13.00;2201.60;;;;;;4990623;28;20034;-56
2022/12/13 04:00:38;;;;;;;16.77;9.77;;;13.00;2201.60;;;;;;4990527;28;20109;-56
2022/12/13 04:03:04;;;;;;;18.02;9.88;;;12.90;2201.60;;;;;;4990721;28;20109;-56
2022/12/13 04:05:30;;;;;;;16.05;10.05;;;12.90;2201.60;;;;;;4990284;28;20034;-56
2022/12/13 04:07:56;;;;;;;15.68;9.60;;;0.00;2201.60;;;;;;4990959;28;20022;-65
2022/12/13 04:10:22;;;;;;;13.95;7.85;;;12.90;2201.60;;;;;;4990900;28;20026;-60
2022/12/13 04:15:32;;;;;;;13.25;9.85;;;12.90;2201.60;;;;;;4991086;28;20042;-64
2022/12/13 04:17:58;;;;;;;14.20;7.85;;;0.00;2201.60;;;;;;4990595;28;20023;-55
2022/12/13 04:20:23;;;;;;;15.60;8.70;;;0.10;2201.60;;;;;;4990831;28;20030;-56
2022/12/13 04:22:49;;;;;;;17.85;11.40;;;0.10;2201.60;;;;;;4990388;28;20516;-56
2022/12/13 04:25:15;;;;;;;16.95;10.85;;;0.00;2201.60;;;;;;4992365;28;20033;-55
2022/12/13 04:27:40;;;;;;;22.17;13.82;;;12.90;2201.60;;;;;;4994271;28;20445;-56
2022/12/13 04:30:07;;;;;;;17.08;11.32;;;0.00;2201.60;;;;;;4994414;28;20031;-56
2022/12/13 04:32:33;;;;;;;16.60;9.52;;;0.00;2201.60;;;;;;4994195;28;20073;-56
2022/12/13 04:34:59;;;;;;;23.83;12.88;;;0.10;2201.60;;;;;;4994263;28;20058;-56
2022/12/13 04:37:25;;;;;;;18.30;9.40;;;0.10;2201.60;;;;;;4994286;28;20061;-56
2022/12/13 04:39:50;;;;;;;18.55;10.75;;;12.90;2201.60;;;;;;4994107;28;20046;-66
2022/12/13 04:42:16;;;;;;;14.40;10.02;;;13.00;2201.60;;;;;;4993973;28;20031;-56
2022/12/13 04:44:42;;;;;;;16.38;10.32;;;13.00;2201.60;;;;;;4994302;28;20034;-58
2022/12/13 04:47:08;;;;;;;16.38;9.95;;;13.00;2201.60;;;;;;4993762;28;20118;-55
2022/12/13 04:49:34;;;;;;;19.60;10.70;;;13.00;2201.60;;;;;;4994187;28;20027;-64
2022/12/13 04:52:01;;;;;;;21.63;13.15;;;12.90;2201.60;;;;;;4993923;28;20038;-56
2022/12/13 04:54:27;;;;;;;21.45;11.77;;;12.90;2201.60;;;;;;4993736;28;20358;-56
2022/12/13 04:56:52;;;;;;;15.98;9.23;;;0.00;2201.60;;;;;;4993736;28;20500;-55
2022/12/13 04:59:18;;;;;;;19.23;11.63;;;0.00;2201.60;;;;;;4993528;28;20157;-56
2022/12/13 05:01:44;;;;;;;23.33;14.07;;;12.90;2201.60;;;;;;4993799;28;20018;-55
2022/12/13 05:04:09;;;;;;;30.58;15.88;;;13.00;2201.60;;;;;;4993552;28;20102;-56
2022/12/13 05:06:35;;;;;;;30.48;16.88;;;13.10;2201.60;;;;;;4993617;28;20026;-61
2022/12/13 05:09:01;;;;;;;30.35;17.55;;;13.00;2201.60;;;;;;4993617;28;20042;-65
2022/12/13 05:11:27;;;;;;;30.90;18.25;;;0.00;2201.60;;;;;;4993582;28;20046;-56
2022/12/13 05:13:53;;;;;;;38.08;20.60;;;0.00;2201.60;;;;;;4993486;28;20034;-55
2022/12/13 05:16:18;;;;;;;32.05;18.98;;;13.10;2201.60;;;;;;4993344;28;20383;-56
2022/12/13 05:18:44;;;;;;;33.17;20.83;;;13.10;2201.60;;;;;;4993623;28;20030;-56
2022/12/13 05:21:11;;;;;;;26.88;17.45;;;13.20;2201.60;;;;;;4993494;28;20089;-55
2022/12/13 05:23:37;;;;;;;27.52;15.20;;;13.20;2201.60;;;;;;4993223;28;20022;-56
2022/12/13 05:26:03;;;;;;;23.33;14.10;;;13.10;2201.60;;;;;;4993461;28;20041;-57
2022/12/13 05:28:29;;;;;;;27.20;14.75;;;13.00;2201.60;;;;;;4993352;28;20023;-64
2022/12/13 05:30:57;;;;;;;25.10;14.35;;;13.20;2201.60;;;;;;4993361;28;20053;-62
2022/12/13 05:33:24;;;;;;;18.10;11.45;;;13.40;2201.60;;;;;;4993360;28;20050;-61
2022/12/13 05:35:50;;;;;;;17.23;9.88;;;13.60;2201.60;;;;;;4992025;28;20401;-55
2022/12/13 05:38:16;;;;;;;17.90;10.57;;;13.70;2201.60;;;;;;4992694;28;21078;-57
2022/12/13 05:40:42;;;;;;;24.77;14.30;;;13.50;2201.60;;;;;;4993137;28;20049;-57
2022/12/13 05:43:10;;;;;;;22.00;12.27;;;13.30;2201.60;;;;;;4992544;28;20137;-56
2022/12/13 05:45:36;;;;;;;17.75;9.27;;;13.20;2201.60;;;;;;4992817;28;20026;-56
2022/12/13 05:48:02;;;;;;;16.05;9.70;;;13.10;2201.60;;;;;;4992902;28;20040;-56
2022/12/13 05:50:27;;;;;;;18.88;10.52;;;13.20;2201.60;;;;;;4992661;28;20018;-56
2022/12/13 05:52:53;;;;;;;18.83;12.27;;;13.20;2201.60;;;;;;4992712;28;20038;-62
2022/12/13 05:55:19;;;;;;;19.40;12.73;;;13.20;2201.60;;;;;;4992559;28;20476;-60
2022/12/13 05:57:44;;;;;;;24.80;13.40;;;13.10;2201.60;;;;;;4992463;28;20050;-60
2022/12/13 06:00:11;;;;;;;17.67;10.02;;;13.20;2201.60;;;;;;4992326;28;20031;-66
2022/12/13 06:02:41;;;;;;;20.17;9.85;;;13.20;2201.60;;;;;;4992481;28;20026;-58
2022/12/13 06:05:08;;;;;;;13.80;8.90;;;13.30;2201.60;;;;;;4992393;28;20117;-63
2022/12/13 06:07:34;;;;;;;15.65;8.98;;;13.10;2201.60;;;;;;4992300;28;20378;-67
2022/12/13 06:10:00;;;;;;;21.75;11.73;;;13.00;2201.60;;;;;;4992545;28;20070;-55
2022/12/13 06:12:26;;;;;;;42.00;23.17;;;13.00;2201.60;;;;;;4980475;28;20544;-67
2022/12/13 06:14:51;;;;;;;57.95;34.80;;;12.90;2201.60;;;;;;4982416;28;20026;-66
2022/12/13 06:17:18;;;;;;;36.65;23.65;;;0.00;2201.60;;;;;;4980937;28;20070;-67
2022/12/13 06:19:45;;;;;;;48.20;28.35;;;0.10;2201.60;;;;;;4980966;28;20034;-62
2022/12/13 06:22:11;;;;;;;125.05;74.80;;;0.20;2201.60;;;;;;4981995;28;20080;-67
2022/12/13 06:24:36;;;;;;;273.35;176.55;;;0.10;2201.60;;;;;;4963214;28;20030;-56
2022/12/13 06:27:04;;;;;;;113.70;68.45;;;0.20;2201.60;;;;;;4980843;28;20030;-63
2022/12/13 06:29:30;;;;;;;83.90;50.08;;;0.20;2201.60;;;;;;4981885;28;20034;-57
2022/12/13 06:32:01;;;;;;;78.50;46.45;;;0.20;2201.60;;;;;;4980418;28;20393;-55
2022/12/13 06:34:27;;;;;;;71.75;41.42;;;0.00;2201.60;;;;;;4980206;28;20022;-56
2022/12/13 06:36:53;;;;;;;90.35;50.03;;;0.00;2201.60;;;;;;4988701;28;20462;-54
2022/12/13 06:39:19;;;;;;;123.68;73.50;;;0.00;2201.60;;;;;;4991760;28;20054;-56
2022/12/13 06:41:44;;;;;;;65.30;38.88;;;0.10;2201.60;;;;;;4991952;28;20073;-56
2022/12/13 06:44:10;;;;;;;52.90;29.55;;;0.20;2201.60;;;;;;4991361;28;20385;-56
2022/12/13 06:46:36;;;;;;;48.03;27.73;;;0.10;2201.60;;;;;;4991928;28;20643;-56
2022/12/13 06:49:02;;;;;;;69.75;41.38;;;0.30;2201.60;;;;;;4991458;28;20026;-56
2022/12/13 06:51:28;;;;;;;60.80;36.63;;;0.40;2201.60;;;;;;4991508;28;20018;-56
2022/12/13 06:53:55;;;;;;;55.47;36.58;;;0.40;2201.60;;;;;;4991820;28;20113;-59
2022/12/13 06:56:21;;;;;;;69.47;38.00;;;0.40;2201.60;;;;;;4990973;28;20123;-56
2022/12/13 06:58:47;;;;;;;135.50;71.05;;;0.50;2201.60;;;;;;4991349;28;20045;-56
2022/12/13 07:01:16;;;;;;;97.45;52.05;;;0.50;2201.60;;;;;;4991778;28;20109;-63
2022/12/13 07:03:42;;;;;;;101.60;56.20;;;0.60;2201.60;;;;;;4991573;28;20026;-56
2022/12/13 07:06:12;;;;;;;82.90;49.33;;;0.60;2201.60;;;;;;4991091;28;20034;-56
2022/12/13 07:08:39;;;;;;;67.57;41.03;;;0.70;2201.60;;;;;;4991261;28;20027;-66
2022/12/13 07:11:05;;;;;;;75.32;42.17;;;0.70;2201.60;;;;;;4990520;28;20542;-68
2022/12/13 07:13:32;;;;;;;133.52;75.10;;;0.60;2201.60;;;;;;4991039;28;20038;-63
2022/12/13 07:15:58;;;;;;;90.75;57.65;;;0.70;2201.60;;;;;;4990873;28;20114;-64
2022/12/13 07:18:25;;;;;;;89.25;50.55;;;0.90;2201.60;;;;;;4987388;28;20101;-63
2022/12/13 07:20:50;;;;;;;60.88;36.75;;;25.60;2201.60;;;;;;4988364;28;20056;-59
2022/12/13 07:23:16;;;;;;;77.00;43.47;;;25.60;2201.60;;;;;;4991151;28;20365;-67
2022/12/13 07:25:49;;;;;;;81.88;46.67;;;25.80;2201.60;;;;;;4991219;28;20053;-64
2022/12/13 07:28:15;;;;;;;82.07;48.15;;;25.80;2201.60;;;;;;4991088;28;20025;-66
2022/12/13 07:30:40;;;;;;;67.03;41.50;;;26.00;2201.60;;;;;;4991181;28;20035;-64
2022/12/13 07:33:06;;;;;;;78.38;44.85;;;26.00;2201.60;;;;;;4991193;28;20045;-66
2022/12/13 07:35:32;;;;;;;85.90;52.20;;;26.10;2201.60;;;;;;4990916;28;20457;-66
2022/12/13 07:37:58;;;;;;;80.00;47.97;;;26.00;2201.60;;;;;;4990460;28;20038;-57
2022/12/13 07:40:24;;;;;;;98.43;57.72;;;26.40;2201.60;;;;;;4990958;28;20019;-57
2022/12/13 07:42:54;;;;;;;102.22;59.40;;;26.20;2201.60;;;;;;4990609;28;20473;-62
2022/12/13 07:45:21;;;;;;;115.65;67.60;;;26.30;2201.60;;;;;;4985762;28;20030;-62
2022/12/13 07:47:47;;;;;;;129.65;76.05;;;26.40;2201.60;;;;;;4970899;28;20080;-55
2022/12/13 07:50:14;;;;;;;113.03;66.03;;;26.40;2201.60;;;;;;4975043;28;20101;-61
2022/12/13 07:52:40;;;;;;;168.13;101.05;;;51.20;2227.20;;;;;;4989680;28;20173;-64
2022/12/13 07:55:07;;;;;;;153.15;95.32;;;51.30;2227.20;;;;;;4989931;28;20525;-64
2022/12/13 07:57:33;;;;;;;131.13;77.32;;;51.40;2227.20;;;;;;4989717;28;20078;-55
2022/12/13 07:59:59;;;;;;;139.05;79.43;;;51.30;2227.20;;;;;;4992959;28;20473;-63
2022/12/13 08:02:24;;;;;;;144.55;87.43;;;26.40;2201.60;;;;;;4996517;28;20033;-62
2022/12/13 08:04:50;;;;;;;152.88;94.60;;;51.20;2227.20;;;;;;4987012;28;20077;-63
2022/12/13 08:07:16;;;;;;;174.00;104.20;;;51.40;2227.20;;;;;;4981607;28;20058;-56
2022/12/13 08:09:42;;;;;;;209.98;124.53;;;51.40;2227.20;;;;;;4978773;28;20035;-57
2022/12/13 08:12:08;;;;;;;207.07;121.72;;;51.30;2227.20;;;;;;4976569;28;20129;-56
2022/12/13 08:14:33;;;;;;;208.40;124.30;;;51.40;2227.20;;;;;;4977754;28;20557;-55
2022/12/13 08:16:59;;;;;;;190.82;125.47;;;51.40;2227.20;;;;;;4977561;28;20027;-56
2022/12/13 08:19:25;;;;;;;208.70;130.63;;;51.50;2227.20;;;;;;4977758;28;20541;-63
2022/12/13 08:21:51;;;;;;;212.52;131.85;;;52.00;2227.20;;;;;;4977578;28;20030;-56
2022/12/13 08:24:18;;;;;;;238.90;149.40;;;77.10;2227.20;;;;;;4977509;28;20030;-54
2022/12/13 08:26:43;;;;;;;238.32;156.13;;;77.10;2227.20;;;;;;4977540;28;20026;-53
2022/12/13 08:29:10;;;;;;;225.38;152.45;;;77.30;2227.20;;;;;;4977168;28;20031;-60
2022/12/13 08:31:36;;;;;;;240.88;166.82;;;77.50;2227.20;;;;;;4977548;28;20026;-52
2022/12/13 08:34:02;;;;;;;240.57;150.27;;;77.60;2227.20;;;;;;4977422;28;20126;-52
2022/12/13 08:36:27;;;;;;;220.25;140.38;;;77.60;2227.20;;;;;;4977420;28;20109;-58
2022/12/13 08:38:57;;;;;;;213.05;144.05;;;77.60;2227.20;;;;;;4977574;28;20031;-54
2022/12/13 08:41:23;;;;;;;225.15;151.20;;;77.70;2227.20;;;;;;4977576;28;20018;-53
2022/12/13 08:43:49;;;;;;;226.43;152.75;;;102.40;2227.20;;;;;;4977223;28;20432;-53
2022/12/13 08:46:15;;;;;;;272.58;170.82;;;102.50;2227.20;;;;;;4977443;28;20070;-61
2022/12/13 08:48:41;;;;;;;254.90;169.95;;;102.70;2227.20;;;;;;4977151;28;20359;-53
2022/12/13 08:51:13;;;;;;;243.93;167.60;;;128.00;2252.80;;;;;;4977135;28;20022;-57
2022/12/13 08:53:39;;;;;;;280.10;185.68;;;103.10;2227.20;;;;;;4976853;28;20085;-59
2022/12/13 08:56:09;;;;;;;262.95;175.07;;;102.80;2227.20;;;;;;4977174;28;20134;-53
2022/12/13 08:58:36;;;;;;;273.75;184.48;;;102.60;2227.20;;;;;;4977168;28;20027;-60
2022/12/13 09:01:07;;;;;;;272.27;183.55;;;102.50;2227.20;;;;;;4977354;28;20034;-53
2022/12/13 09:03:38;;;;;;;220.80;140.40;;;102.40;2227.20;;;;;;4977041;28;20053;-56
2022/12/13 09:06:15;;;;;;;253.75;171.15;;;77.70;2227.20;;;;;;4976961;28;20022;-53
2022/12/13 09:08:42;;;;;;;278.20;181.43;;;102.50;2227.20;;;;;;4977041;28;20093;-61
2022/12/13 09:11:10;;;;;;;281.80;186.90;;;102.40;2227.20;;;;;;4975689;28;20019;-60
2022/12/13 09:13:37;;;;;;;295.15;194.93;;;77.60;2227.20;;;;;;4974237;28;20525;-55
2022/12/13 09:16:10;;;;;;;322.63;213.57;;;77.50;2227.20;;;;;;4974103;28;20090;-55
2022/12/13 09:18:35;;;;;;;253.73;162.00;;;77.60;2227.20;;;;;;4974253;28;20354;-58
2022/12/13 09:21:10;;;;;;;221.02;149.07;;;77.20;2227.20;;;;;;4974077;28;20054;-56
2022/12/13 09:23:36;;;;;;;209.50;141.82;;;77.20;2227.20;;;;;;4974016;28;20052;-54
2022/12/13 09:26:02;;;;;;;203.73;132.10;;;76.80;2227.20;;;;;;4974189;28;20085;-57
2022/12/13 09:28:28;;;;;;;215.60;135.23;;;52.00;2227.20;;;;;;4974024;28;20026;-59
2022/12/13 09:30:55;;;;;;;196.98;131.30;;;76.90;2227.20;;;;;;4973971;28;20355;-54
2022/12/13 09:33:21;;;;;;;206.40;135.10;;;77.00;2227.20;;;;;;4973516;28;20034;-53
2022/12/13 09:35:47;;;;;;;185.77;119.28;;;77.30;2227.20;;;;;;4973613;28;20050;-60
2022/12/13 09:38:12;;;;;;;190.35;118.07;;;77.10;2227.20;;;;;;4973795;28;20485;-58
2022/12/13 09:40:39;;;;;;;160.95;107.40;;;77.00;2227.20;;;;;;4973481;28;20082;-60
2022/12/13 09:43:06;;;;;;;163.13;107.80;;;76.80;2227.20;;;;;;4973808;28;20114;-58
2022/12/13 09:45:33;;;;;;;167.15;100.03;;;76.80;2227.20;;;;;;4973562;28;20034;-60
2022/12/13 09:48:00;;;;;;;161.50;101.20;;;77.10;2227.20;;;;;;4973342;28;20106;-55
2022/12/13 09:50:31;;;;;;;164.77;106.05;;;77.00;2227.20;;;;;;4973567;28;20033;-60
2022/12/13 09:52:58;;;;;;;140.85;92.70;;;76.80;2227.20;;;;;;4973269;28;20497;-59
2022/12/13 09:55:31;;;;;;;143.13;90.80;;;77.00;2227.20;;;;;;4973395;28;20478;-53
2022/12/13 09:57:59;;;;;;;115.40;71.45;;;77.50;2227.20;;;;;;4973154;28;20054;-52
2022/12/13 10:00:32;;;;;;;117.35;73.60;;;77.40;2227.20;;;;;;4973623;28;20433;-60
2022/12/13 10:02:59;;;;;;;132.55;72.40;;;77.70;2227.20;;;;;;4973153;28;20053;-60
2022/12/13 10:05:35;;;;;;;116.95;69.47;;;77.50;2227.20;;;;;;4973076;28;20035;-57
2022/12/13 10:08:15;;;;;;;139.40;98.75;;;77.60;2227.20;;;;;;4973049;28;20442;-53
2022/12/13 10:10:42;;;;;;;110.97;71.22;;;77.60;2227.20;;;;;;4987746;28;20465;-61
2022/12/13 10:13:20;;;;;;;115.32;70.38;;;102.60;2227.20;;;;;;4992127;28;20038;-61
2022/12/13 10:16:17;;;;;;;99.00;63.33;;;102.90;2227.20;;;;;;4992447;28;20055;-55
2022/12/13 10:18:44;;;;;;;94.53;55.40;;;102.60;2227.20;;;;;;4992497;28;20050;-53
2022/12/13 10:21:16;;;;;;;46.40;30.17;;;102.80;2227.20;;;;;;4992215;28;20032;-62
2022/12/13 10:23:42;;;;;;;72.90;44.42;;;77.70;2227.20;;;;;;4991879;28;20113;-54
2022/12/13 10:26:10;;;;;;;60.70;36.13;;;102.60;2227.20;;;;;;4992228;28;20074;-53
2022/12/13 10:28:37;;;;;;;94.65;52.58;;;102.40;2227.20;;;;;;4991950;28;20117;-55
2022/12/13 10:31:03;;;;;;;67.95;40.72;;;102.50;2227.20;;;;;;4992153;28;20038;-52
2022/12/13 10:33:30;;;;;;;37.47;23.27;;;102.70;2227.20;;;;;;4992105;28;20532;-60
2022/12/13 10:36:12;;;;;;;56.40;33.83;;;102.60;2227.20;;;;;;4991893;28;20062;-55
2022/12/13 10:38:41;;;;;;;61.00;37.38;;;77.60;2227.20;;;;;;4991667;28;20089;-59
2022/12/13 10:41:28;;;;;;;67.22;38.38;;;102.40;2227.20;;;;;;4991901;28;20235;-60
2022/12/13 10:44:11;;;;;;;75.82;45.58;;;77.50;2227.20;;;;;;4991630;28;20026;-53
2022/12/13 10:46:39;;;;;;;74.72;43.75;;;102.40;2227.20;;;;;;4992054;28;20041;-55
2022/12/13 10:49:17;;;;;;;59.22;37.63;;;102.40;2227.20;;;;;;4991845;28;20030;-52
2022/12/13 10:51:44;;;;;;;75.90;49.03;;;102.80;2227.20;;;;;;4991912;28;20038;-53
2022/12/13 10:54:18;;;;;;;89.93;49.55;;;102.80;2227.20;;;;;;4991870;28;20026;-55
2022/12/13 10:56:48;;;;;;;68.70;41.08;;;102.50;2227.20;;;;;;4991835;28;20046;-62
2022/12/13 10:59:25;;;;;;;68.88;41.38;;;77.50;2227.20;;;;;;4991900;28;20037;-57
2022/12/13 11:01:51;;;;;;;59.70;34.70;;;77.40;2227.20;;;;;;4991315;28;20463;-60
2022/12/13 11:04:28;;;;;;;46.65;31.95;;;77.50;2227.20;;;;;;4991182;28;20057;-53
2022/12/13 11:06:55;;;;;;;78.97;41.40;;;77.00;2227.20;;;;;;4991468;28;20444;-54
2022/12/13 11:09:31;;;;;;;80.13;47.45;;;77.20;2227.20;;;;;;4991591;28;20129;-53
2022/12/13 11:12:01;;;;;;;89.47;52.08;;;77.30;2227.20;;;;;;4987199;28;20030;-61
2022/12/13 11:14:33;;;;;;;83.53;50.33;;;77.10;2227.20;;;;;;4989821;28;20027;-53
2022/12/13 11:17:06;;;;;;;82.63;44.30;;;77.40;2227.20;;;;;;4991406;28;20058;-56
2022/12/13 11:19:39;;;;;;;56.95;33.15;;;77.00;2227.20;;;;;;4991511;28;20052;-59
2022/12/13 11:22:08;;;;;;;74.15;36.80;;;77.00;2227.20;;;;;;4991271;28;20102;-60
2022/12/13 11:24:37;;;;;;;57.50;36.40;;;77.20;2227.20;;;;;;4991272;28;20026;-53
2022/12/13 11:27:29;;;;;;;66.78;39.72;;;77.40;2227.20;;;;;;4990934;28;20473;-58
2022/12/13 11:30:10;;;;;;;77.13;41.65;;;77.30;2227.20;;;;;;4990984;28;20038;-53
2022/12/13 11:33:07;;;;;;;67.82;39.28;;;77.20;2227.20;;;;;;4990668;28;20066;-56
2022/12/13 11:36:07;;;;;;;55.75;36.95;;;76.80;2227.20;;;;;;4990185;28;20393;-58
2022/12/13 11:38:58;;;;;;;65.40;39.83;;;52.10;2227.20;;;;;;4991078;28;20402;-57
2022/12/13 11:41:27;;;;;;;53.97;34.28;;;76.90;2227.20;;;;;;4911947;29;20046;-54
2022/12/13 11:44:00;;;;;;;43.08;27.70;;;52.00;2227.20;;;;;;4912015;29;20387;-60
2022/12/13 11:46:46;;;;;;;;;;;51.80;2227.20;;;;;;4912590;29;20055;-60
2022/12/13 11:49:19;;;;;;;52.40;29.38;;;51.90;2227.20;;;;;;4911455;29;19914;-60
2022/12/13 11:51:54;;;;;;;51.50;28.58;;;52.10;2227.20;;;;;;4911830;29;20044;-57
2022/12/13 11:54:47;;;;;;;57.38;30.58;;;52.10;2227.20;;;;;;4911696;29;20032;-53
2022/12/13 11:57:39;;;;;;;58.30;36.60;;;77.10;2227.20;;;;;;4892882;29;20072;-60
2022/12/13 12:00:30;;;;;;;58.90;34.83;;;77.30;2227.20;;;;;;4892983;29;20535;-60
2022/12/13 12:03:14;;;;;;;56.78;35.20;;;77.20;2227.20;;;;;;4874137;29;20093;-55
2022/12/13 12:05:46;;;;;;;55.35;30.33;;;77.00;2227.20;;;;;;4874035;29;20128;-60
2022/12/13 12:08:26;;;;;;;47.13;29.80;;;77.00;2227.20;;;;;;4874391;29;20049;-60
2022/12/13 12:11:11;;;;;;;71.85;43.78;;;77.40;2227.20;;;;;;4874216;29;20201;-52
2022/12/13 12:13:55;;;;;;;76.53;44.08;;;77.70;2227.20;;;;;;4873888;29;20044;-52
2022/12/13 12:16:41;;;;;;;63.47;38.33;;;102.50;2227.20;;;;;;4874242;29;20022;-52
2022/12/13 12:19:15;;;;;;;80.68;51.03;;;102.60;2227.20;;;;;;4888793;29;20041;-55
2022/12/13 12:22:19;;;;;;;63.35;41.45;;;102.80;2227.20;;;;;;4892628;29;20037;-53